sensor_id;sensor_type;location;lat;lon;timestamp;P1;durP1;ratioP1;P2;durP2;ratioP2
71148;SDS011;59072;42.144;25.200;2023-09-07T00:01:29;19.60;;;14.93;;
71148;SDS011;59072;42.144;25.200;2023-09-07T00:03:55;18.30;;;14.50;;
71148;SDS011;59072;42.144;25.200;2023-09-07T00:06:20;19.10;;;14.45;;
71148;SDS011;59072;42.144;25.200;2023-09-07T00:08:45;19.30;;;14.38;;
71148;SDS011;59072;42.144;25.200;2023-09-07T00:14:06;19.17;;;15.02;;
71148;SDS011;59072;42.144;25.200;2023-09-07T00:16:32;19.58;;;15.60;;
71148;SDS011;59072;42.144;25.200;2023-09-07T00:19:03;18.25;;;14.77;;
71148;SDS011;59072;42.144;25.200;2023-09-07T00:21:29;21.85;;;15.77;;
71148;SDS011;59072;42.144;25.200;2023-09-07T00:23:54;18.63;;;15.63;;
71148;SDS011;59072;42.144;25.200;2023-09-07T00:26:26;19.95;;;15.23;;
71148;SDS011;59072;42.144;25.200;2023-09-07T00:28:54;18.65;;;14.85;;
71148;SDS011;59072;42.144;25.200;2023-09-07T00:31:20;24.40;;;15.90;;
71148;SDS011;59072;42.144;25.200;2023-09-07T00:33:45;16.35;;;14.27;;
71148;SDS011;59072;42.144;25.200;2023-09-07T00:36:10;16.60;;;14.25;;
71148;SDS011;59072;42.144;25.200;2023-09-07T00:38:36;18.80;;;14.38;;
71148;SDS011;59072;42.144;25.200;2023-09-07T00:41:01;17.00;;;14.70;;
71148;SDS011;59072;42.144;25.200;2023-09-07T00:43:27;22.58;;;16.40;;
71148;SDS011;59072;42.144;25.200;2023-09-07T00:45:52;20.05;;;15.27;;
71148;SDS011;59072;42.144;25.200;2023-09-07T00:48:18;34.70;;;24.92;;
71148;SDS011;59072;42.144;25.200;2023-09-07T00:50:44;43.08;;;28.92;;
71148;SDS011;59072;42.144;25.200;2023-09-07T00:53:10;36.85;;;25.50;;
71148;SDS011;59072;42.144;25.200;2023-09-07T00:55:36;33.42;;;21.85;;
71148;SDS011;59072;42.144;25.200;2023-09-07T00:58:05;28.17;;;19.48;;
71148;SDS011;59072;42.144;25.200;2023-09-07T01:00:31;28.15;;;20.00;;
71148;SDS011;59072;42.144;25.200;2023-09-07T01:02:57;27.38;;;19.38;;
71148;SDS011;59072;42.144;25.200;2023-09-07T01:05:40;26.65;;;19.35;;
71148;SDS011;59072;42.144;25.200;2023-09-07T01:08:14;26.27;;;19.60;;
71148;SDS011;59072;42.144;25.200;2023-09-07T01:10:45;29.15;;;18.90;;
71148;SDS011;59072;42.144;25.200;2023-09-07T01:13:10;23.60;;;17.42;;
71148;SDS011;59072;42.144;25.200;2023-09-07T01:15:36;23.05;;;18.40;;
71148;SDS011;59072;42.144;25.200;2023-09-07T01:18:02;27.83;;;18.15;;
71148;SDS011;59072;42.144;25.200;2023-09-07T01:20:34;25.60;;;17.88;;
71148;SDS011;59072;42.144;25.200;2023-09-07T01:23:01;21.67;;;16.75;;
71148;SDS011;59072;42.144;25.200;2023-09-07T01:25:28;25.17;;;17.35;;
71148;SDS011;59072;42.144;25.200;2023-09-07T01:30:52;26.73;;;17.70;;
71148;SDS011;59072;42.144;25.200;2023-09-07T01:33:20;25.67;;;17.50;;
71148;SDS011;59072;42.144;25.200;2023-09-07T01:35:46;20.30;;;15.90;;
71148;SDS011;59072;42.144;25.200;2023-09-07T01:38:11;24.17;;;17.45;;
71148;SDS011;59072;42.144;25.200;2023-09-07T01:40:37;20.48;;;15.35;;
71148;SDS011;59072;42.144;25.200;2023-09-07T01:45:49;22.30;;;17.05;;
71148;SDS011;59072;42.144;25.200;2023-09-07T01:48:15;20.02;;;15.40;;
71148;SDS011;59072;42.144;25.200;2023-09-07T01:50:40;19.42;;;16.20;;
71148;SDS011;59072;42.144;25.200;2023-09-07T01:56:11;22.80;;;16.38;;
71148;SDS011;59072;42.144;25.200;2023-09-07T02:04:44;19.05;;;16.00;;
71148;SDS011;59072;42.144;25.200;2023-09-07T02:07:11;20.83;;;15.27;;
71148;SDS011;59072;42.144;25.200;2023-09-07T02:09:46;21.77;;;16.83;;
71148;SDS011;59072;42.144;25.200;2023-09-07T02:12:12;21.92;;;16.02;;
71148;SDS011;59072;42.144;25.200;2023-09-07T02:14:56;17.20;;;15.15;;
71148;SDS011;59072;42.144;25.200;2023-09-07T02:17:21;20.63;;;15.85;;
71148;SDS011;59072;42.144;25.200;2023-09-07T02:20:05;18.85;;;15.57;;
71148;SDS011;59072;42.144;25.200;2023-09-07T02:25:42;20.13;;;15.82;;
71148;SDS011;59072;42.144;25.200;2023-09-07T02:28:08;20.35;;;15.82;;
71148;SDS011;59072;42.144;25.200;2023-09-07T02:30:44;19.10;;;14.70;;
71148;SDS011;59072;42.144;25.200;2023-09-07T02:33:10;19.55;;;15.32;;
71148;SDS011;59072;42.144;25.200;2023-09-07T02:35:53;19.85;;;15.57;;
71148;SDS011;59072;42.144;25.200;2023-09-07T02:41:12;18.67;;;14.77;;
71148;SDS011;59072;42.144;25.200;2023-09-07T02:43:49;20.23;;;15.00;;
71148;SDS011;59072;42.144;25.200;2023-09-07T02:46:15;19.40;;;14.70;;
71148;SDS011;59072;42.144;25.200;2023-09-07T02:48:50;17.92;;;15.32;;
71148;SDS011;59072;42.144;25.200;2023-09-07T02:51:15;18.17;;;14.40;;
71148;SDS011;59072;42.144;25.200;2023-09-07T02:53:53;19.85;;;14.70;;
71148;SDS011;59072;42.144;25.200;2023-09-07T02:56:19;18.38;;;14.77;;
71148;SDS011;59072;42.144;25.200;2023-09-07T03:02:09;19.35;;;14.60;;
71148;SDS011;59072;42.144;25.200;2023-09-07T03:04:34;16.73;;;13.32;;
71148;SDS011;59072;42.144;25.200;2023-09-07T03:07:00;18.23;;;14.88;;
71148;SDS011;59072;42.144;25.200;2023-09-07T03:12:28;18.33;;;15.15;;
71148;SDS011;59072;42.144;25.200;2023-09-07T03:14:53;18.23;;;13.88;;
71148;SDS011;59072;42.144;25.200;2023-09-07T03:17:19;20.10;;;14.65;;
71148;SDS011;59072;42.144;25.200;2023-09-07T03:19:46;19.70;;;13.77;;
71148;SDS011;59072;42.144;25.200;2023-09-07T03:22:45;18.00;;;13.23;;
71148;SDS011;59072;42.144;25.200;2023-09-07T03:25:27;18.40;;;13.95;;
71148;SDS011;59072;42.144;25.200;2023-09-07T03:27:53;17.58;;;13.43;;
71148;SDS011;59072;42.144;25.200;2023-09-07T03:30:30;19.80;;;13.88;;
71148;SDS011;59072;42.144;25.200;2023-09-07T03:32:56;17.55;;;13.90;;
71148;SDS011;59072;42.144;25.200;2023-09-07T03:35:33;20.20;;;13.85;;
71148;SDS011;59072;42.144;25.200;2023-09-07T03:37:58;18.58;;;14.00;;
71148;SDS011;59072;42.144;25.200;2023-09-07T03:40:33;18.83;;;14.68;;
71148;SDS011;59072;42.144;25.200;2023-09-07T03:42:58;17.35;;;14.05;;
71148;SDS011;59072;42.144;25.200;2023-09-07T03:45:24;19.00;;;14.18;;
71148;SDS011;59072;42.144;25.200;2023-09-07T03:48:32;17.05;;;13.20;;
71148;SDS011;59072;42.144;25.200;2023-09-07T03:50:38;14.52;;;12.43;;
71148;SDS011;59072;42.144;25.200;2023-09-07T03:58:36;20.73;;;13.82;;
71148;SDS011;59072;42.144;25.200;2023-09-07T04:01:20;20.67;;;14.57;;
71148;SDS011;59072;42.144;25.200;2023-09-07T04:03:45;19.75;;;14.65;;
71148;SDS011;59072;42.144;25.200;2023-09-07T04:11:56;19.05;;;13.95;;
71148;SDS011;59072;42.144;25.200;2023-09-07T04:14:21;17.42;;;14.98;;
71148;SDS011;59072;42.144;25.200;2023-09-07T04:17:20;18.73;;;15.07;;
71148;SDS011;59072;42.144;25.200;2023-09-07T04:20:07;20.77;;;15.00;;
71148;SDS011;59072;42.144;25.200;2023-09-07T04:23:19;20.88;;;15.38;;
71148;SDS011;59072;42.144;25.200;2023-09-07T04:25:31;21.27;;;16.08;;
71148;SDS011;59072;42.144;25.200;2023-09-07T04:28:09;20.08;;;16.52;;
71148;SDS011;59072;42.144;25.200;2023-09-07T04:33:32;22.55;;;16.40;;
71148;SDS011;59072;42.144;25.200;2023-09-07T04:36:11;22.55;;;17.23;;
71148;SDS011;59072;42.144;25.200;2023-09-07T04:38:38;18.90;;;16.58;;
71148;SDS011;59072;42.144;25.200;2023-09-07T04:41:13;19.95;;;16.55;;
71148;SDS011;59072;42.144;25.200;2023-09-07T04:43:39;19.58;;;15.82;;
71148;SDS011;59072;42.144;25.200;2023-09-07T04:49:34;27.80;;;18.80;;
71148;SDS011;59072;42.144;25.200;2023-09-07T04:51:40;33.65;;;23.55;;
71148;SDS011;59072;42.144;25.200;2023-09-07T04:54:06;31.08;;;21.55;;
71148;SDS011;59072;42.144;25.200;2023-09-07T04:56:31;28.80;;;19.75;;
71148;SDS011;59072;42.144;25.200;2023-09-07T05:01:45;20.23;;;15.98;;
71148;SDS011;59072;42.144;25.200;2023-09-07T05:04:10;20.25;;;15.00;;
71148;SDS011;59072;42.144;25.200;2023-09-07T05:06:37;17.17;;;15.10;;
71148;SDS011;59072;42.144;25.200;2023-09-07T05:09:22;22.48;;;14.38;;
71148;SDS011;59072;42.144;25.200;2023-09-07T05:11:48;16.35;;;13.13;;
71148;SDS011;59072;42.144;25.200;2023-09-07T05:14:23;21.25;;;14.63;;
71148;SDS011;59072;42.144;25.200;2023-09-07T05:16:49;19.63;;;13.90;;
71148;SDS011;59072;42.144;25.200;2023-09-07T05:19:23;16.52;;;13.85;;
71148;SDS011;59072;42.144;25.200;2023-09-07T05:21:49;17.45;;;14.20;;
71148;SDS011;59072;42.144;25.200;2023-09-07T05:27:27;18.25;;;13.98;;
71148;SDS011;59072;42.144;25.200;2023-09-07T05:29:53;17.85;;;13.68;;
71148;SDS011;59072;42.144;25.200;2023-09-07T05:32:27;19.75;;;13.70;;
71148;SDS011;59072;42.144;25.200;2023-09-07T05:34:52;17.63;;;13.30;;
71148;SDS011;59072;42.144;25.200;2023-09-07T05:37:30;19.02;;;13.70;;
71148;SDS011;59072;42.144;25.200;2023-09-07T05:39:55;19.05;;;14.00;;
71148;SDS011;59072;42.144;25.200;2023-09-07T05:42:21;21.80;;;13.82;;
71148;SDS011;59072;42.144;25.200;2023-09-07T05:44:46;16.35;;;14.02;;
71148;SDS011;59072;42.144;25.200;2023-09-07T05:49:59;17.42;;;12.70;;
71148;SDS011;59072;42.144;25.200;2023-09-07T05:52:33;18.65;;;14.27;;
71148;SDS011;59072;42.144;25.200;2023-09-07T05:54:59;19.83;;;14.30;;
71148;SDS011;59072;42.144;25.200;2023-09-07T05:57:24;20.52;;;14.18;;
71148;SDS011;59072;42.144;25.200;2023-09-07T05:59:52;18.13;;;13.60;;
71148;SDS011;59072;42.144;25.200;2023-09-07T06:05:02;23.73;;;15.77;;
71148;SDS011;59072;42.144;25.200;2023-09-07T06:07:49;17.42;;;14.13;;
71148;SDS011;59072;42.144;25.200;2023-09-07T06:10:13;19.15;;;14.23;;
71148;SDS011;59072;42.144;25.200;2023-09-07T06:12:50;16.42;;;13.85;;
71148;SDS011;59072;42.144;25.200;2023-09-07T06:15:16;20.05;;;14.57;;
71148;SDS011;59072;42.144;25.200;2023-09-07T06:17:50;20.30;;;14.90;;
71148;SDS011;59072;42.144;25.200;2023-09-07T06:20:16;17.77;;;13.73;;
71148;SDS011;59072;42.144;25.200;2023-09-07T06:22:52;17.95;;;13.57;;
71148;SDS011;59072;42.144;25.200;2023-09-07T06:25:17;20.17;;;14.23;;
71148;SDS011;59072;42.144;25.200;2023-09-07T06:28:01;20.25;;;15.35;;
71148;SDS011;59072;42.144;25.200;2023-09-07T06:30:26;17.83;;;14.45;;
71148;SDS011;59072;42.144;25.200;2023-09-07T06:32:54;21.77;;;13.50;;
71148;SDS011;59072;42.144;25.200;2023-09-07T06:35:21;21.10;;;14.95;;
71148;SDS011;59072;42.144;25.200;2023-09-07T06:38:02;19.80;;;13.63;;
71148;SDS011;59072;42.144;25.200;2023-09-07T06:40:27;19.98;;;13.95;;
71148;SDS011;59072;42.144;25.200;2023-09-07T06:43:01;24.08;;;14.05;;
71148;SDS011;59072;42.144;25.200;2023-09-07T06:45:34;18.05;;;14.00;;
71148;SDS011;59072;42.144;25.200;2023-09-07T06:48:03;19.73;;;14.35;;
71148;SDS011;59072;42.144;25.200;2023-09-07T06:50:29;17.80;;;13.70;;
71148;SDS011;59072;42.144;25.200;2023-09-07T06:53:06;18.45;;;14.20;;
71148;SDS011;59072;42.144;25.200;2023-09-07T06:58:06;17.10;;;14.37;;
71148;SDS011;59072;42.144;25.200;2023-09-07T07:00:32;23.40;;;16.77;;
71148;SDS011;59072;42.144;25.200;2023-09-07T07:03:15;20.25;;;15.80;;
71148;SDS011;59072;42.144;25.200;2023-09-07T07:05:40;19.90;;;14.88;;
71148;SDS011;59072;42.144;25.200;2023-09-07T07:08:07;16.70;;;14.05;;
71148;SDS011;59072;42.144;25.200;2023-09-07T07:11:01;16.75;;;14.07;;
71148;SDS011;59072;42.144;25.200;2023-09-07T07:13:27;15.70;;;12.05;;
71148;SDS011;59072;42.144;25.200;2023-09-07T07:16:04;14.20;;;11.52;;
71148;SDS011;59072;42.144;25.200;2023-09-07T07:18:31;14.85;;;12.05;;
71148;SDS011;59072;42.144;25.200;2023-09-07T07:23:55;15.93;;;12.25;;
71148;SDS011;59072;42.144;25.200;2023-09-07T07:26:29;16.75;;;12.13;;
71148;SDS011;59072;42.144;25.200;2023-09-07T07:28:57;12.98;;;10.55;;
71148;SDS011;59072;42.144;25.200;2023-09-07T07:31:45;16.55;;;11.60;;
71148;SDS011;59072;42.144;25.200;2023-09-07T07:36:59;14.43;;;10.15;;
71148;SDS011;59072;42.144;25.200;2023-09-07T07:39:33;11.80;;;8.88;;
71148;SDS011;59072;42.144;25.200;2023-09-07T07:41:59;11.70;;;8.75;;
71148;SDS011;59072;42.144;25.200;2023-09-07T07:44:45;10.27;;;8.18;;
71148;SDS011;59072;42.144;25.200;2023-09-07T07:50:05;10.75;;;7.40;;
71148;SDS011;59072;42.144;25.200;2023-09-07T07:52:37;11.93;;;7.20;;
71148;SDS011;59072;42.144;25.200;2023-09-07T07:55:02;9.23;;;6.28;;
71148;SDS011;59072;42.144;25.200;2023-09-07T07:57:49;8.30;;;6.68;;
71148;SDS011;59072;42.144;25.200;2023-09-07T08:00:14;11.07;;;6.82;;
71148;SDS011;59072;42.144;25.200;2023-09-07T08:02:42;11.13;;;7.13;;
71148;SDS011;59072;42.144;25.200;2023-09-07T08:05:09;11.77;;;6.43;;
71148;SDS011;59072;42.144;25.200;2023-09-07T08:07:34;14.27;;;6.47;;
71148;SDS011;59072;42.144;25.200;2023-09-07T08:10:00;32.05;;;9.70;;
71148;SDS011;59072;42.144;25.200;2023-09-07T08:12:25;14.95;;;7.10;;
71148;SDS011;59072;42.144;25.200;2023-09-07T08:14:52;10.50;;;5.17;;
71148;SDS011;59072;42.144;25.200;2023-09-07T08:17:17;11.20;;;5.00;;
71148;SDS011;59072;42.144;25.200;2023-09-07T08:22:36;9.43;;;5.60;;
71148;SDS011;59072;42.144;25.200;2023-09-07T08:25:19;9.88;;;4.97;;
71148;SDS011;59072;42.144;25.200;2023-09-07T08:27:51;7.55;;;4.63;;
71148;SDS011;59072;42.144;25.200;2023-09-07T08:30:28;7.40;;;5.18;;
71148;SDS011;59072;42.144;25.200;2023-09-07T08:32:53;6.95;;;4.57;;
71148;SDS011;59072;42.144;25.200;2023-09-07T08:35:29;7.78;;;4.30;;
71148;SDS011;59072;42.144;25.200;2023-09-07T08:37:55;10.38;;;4.32;;
71148;SDS011;59072;42.144;25.200;2023-09-07T08:48:37;10.05;;;5.15;;
71148;SDS011;59072;42.144;25.200;2023-09-07T08:51:03;6.72;;;4.18;;
71148;SDS011;59072;42.144;25.200;2023-09-07T08:53:31;10.00;;;4.60;;
71148;SDS011;59072;42.144;25.200;2023-09-07T08:56:16;7.32;;;4.88;;
71148;SDS011;59072;42.144;25.200;2023-09-07T09:01:34;6.50;;;4.30;;
71148;SDS011;59072;42.144;25.200;2023-09-07T09:04:05;7.18;;;4.63;;
71148;SDS011;59072;42.144;25.200;2023-09-07T09:06:34;7.10;;;4.20;;
71148;SDS011;59072;42.144;25.200;2023-09-07T09:09:00;7.95;;;4.68;;
71148;SDS011;59072;42.144;25.200;2023-09-07T09:14:18;7.97;;;4.22;;
71148;SDS011;59072;42.144;25.200;2023-09-07T09:16:54;7.80;;;4.28;;
71148;SDS011;59072;42.144;25.200;2023-09-07T09:19:35;5.18;;;4.07;;
71148;SDS011;59072;42.144;25.200;2023-09-07T09:22:01;6.90;;;4.18;;
71148;SDS011;59072;42.144;25.200;2023-09-07T09:24:43;9.65;;;4.10;;
71148;SDS011;59072;42.144;25.200;2023-09-07T09:27:09;8.98;;;4.45;;
71148;SDS011;59072;42.144;25.200;2023-09-07T09:29:34;12.43;;;6.88;;
71148;SDS011;59072;42.144;25.200;2023-09-07T09:32:26;15.77;;;10.80;;
71148;SDS011;59072;42.144;25.200;2023-09-07T09:34:55;7.03;;;4.03;;
71148;SDS011;59072;42.144;25.200;2023-09-07T09:37:29;10.45;;;4.28;;
71148;SDS011;59072;42.144;25.200;2023-09-07T09:39:55;9.15;;;4.50;;
71148;SDS011;59072;42.144;25.200;2023-09-07T09:42:33;6.55;;;3.97;;
71148;SDS011;59072;42.144;25.200;2023-09-07T09:44:58;6.88;;;4.30;;
71148;SDS011;59072;42.144;25.200;2023-09-07T09:47:33;5.82;;;4.20;;
71148;SDS011;59072;42.144;25.200;2023-09-07T09:59:02;8.00;;;4.88;;
71148;SDS011;59072;42.144;25.200;2023-09-07T10:01:41;9.55;;;4.80;;
71148;SDS011;59072;42.144;25.200;2023-09-07T10:04:15;7.82;;;4.90;;
71148;SDS011;59072;42.144;25.200;2023-09-07T10:06:55;10.55;;;5.10;;
71148;SDS011;59072;42.144;25.200;2023-09-07T10:12:26;9.85;;;4.95;;
71148;SDS011;59072;42.144;25.200;2023-09-07T10:15:25;8.63;;;4.88;;
71148;SDS011;59072;42.144;25.200;2023-09-07T10:23:34;10.13;;;6.90;;
71148;SDS011;59072;42.144;25.200;2023-09-07T10:26:29;10.30;;;6.50;;
71148;SDS011;59072;42.144;25.200;2023-09-07T10:29:01;7.90;;;4.80;;
71148;SDS011;59072;42.144;25.200;2023-09-07T10:31:29;8.55;;;5.10;;
71148;SDS011;59072;42.144;25.200;2023-09-07T10:34:10;7.18;;;4.70;;
71148;SDS011;59072;42.144;25.200;2023-09-07T10:36:37;12.05;;;5.65;;
71148;SDS011;59072;42.144;25.200;2023-09-07T10:39:02;8.60;;;4.45;;
71148;SDS011;59072;42.144;25.200;2023-09-07T10:41:39;6.00;;;4.25;;
71148;SDS011;59072;42.144;25.200;2023-09-07T10:44:30;8.07;;;4.22;;
71148;SDS011;59072;42.144;25.200;2023-09-07T10:46:59;9.82;;;4.60;;
71148;SDS011;59072;42.144;25.200;2023-09-07T10:49:25;7.47;;;4.70;;
71148;SDS011;59072;42.144;25.200;2023-09-07T10:52:08;6.82;;;4.50;;
71148;SDS011;59072;42.144;25.200;2023-09-07T10:54:34;7.13;;;4.40;;
71148;SDS011;59072;42.144;25.200;2023-09-07T10:57:09;8.30;;;4.53;;
71148;SDS011;59072;42.144;25.200;2023-09-07T10:59:36;6.95;;;4.35;;
71148;SDS011;59072;42.144;25.200;2023-09-07T11:05:14;7.78;;;4.60;;
71148;SDS011;59072;42.144;25.200;2023-09-07T11:07:40;7.90;;;4.95;;
71148;SDS011;59072;42.144;25.200;2023-09-07T11:10:14;9.20;;;4.30;;
71148;SDS011;59072;42.144;25.200;2023-09-07T11:12:40;8.52;;;4.40;;
71148;SDS011;59072;42.144;25.200;2023-09-07T11:15:18;7.55;;;4.38;;
71148;SDS011;59072;42.144;25.200;2023-09-07T11:17:44;5.93;;;4.10;;
71148;SDS011;59072;42.144;25.200;2023-09-07T11:20:11;6.00;;;4.60;;
71148;SDS011;59072;42.144;25.200;2023-09-07T11:22:36;6.55;;;4.15;;
71148;SDS011;59072;42.144;25.200;2023-09-07T11:25:04;8.75;;;4.82;;
71148;SDS011;59072;42.144;25.200;2023-09-07T11:27:31;7.15;;;4.13;;
71148;SDS011;59072;42.144;25.200;2023-09-07T11:29:57;8.10;;;4.70;;
71148;SDS011;59072;42.144;25.200;2023-09-07T11:35:48;8.80;;;4.63;;
71148;SDS011;59072;42.144;25.200;2023-09-07T11:38:14;10.50;;;4.90;;
71148;SDS011;59072;42.144;25.200;2023-09-07T11:40:40;7.13;;;5.20;;
71148;SDS011;59072;42.144;25.200;2023-09-07T11:43:09;7.28;;;4.85;;
71148;SDS011;59072;42.144;25.200;2023-09-07T11:45:35;7.38;;;4.50;;
71148;SDS011;59072;42.144;25.200;2023-09-07T11:48:01;8.52;;;4.55;;
71148;SDS011;59072;42.144;25.200;2023-09-07T11:50:26;10.02;;;4.43;;
71148;SDS011;59072;42.144;25.200;2023-09-07T11:52:55;12.52;;;4.97;;
71148;SDS011;59072;42.144;25.200;2023-09-07T11:55:21;9.48;;;4.82;;
71148;SDS011;59072;42.144;25.200;2023-09-07T11:57:47;7.65;;;4.45;;
71148;SDS011;59072;42.144;25.200;2023-09-07T12:00:22;6.68;;;4.60;;
71148;SDS011;59072;42.144;25.200;2023-09-07T12:02:48;8.43;;;4.55;;
71148;SDS011;59072;42.144;25.200;2023-09-07T12:05:23;8.20;;;4.90;;
71148;SDS011;59072;42.144;25.200;2023-09-07T12:07:49;7.50;;;4.60;;
71148;SDS011;59072;42.144;25.200;2023-09-07T12:10:24;7.25;;;4.57;;
71148;SDS011;59072;42.144;25.200;2023-09-07T12:12:49;7.88;;;4.30;;
71148;SDS011;59072;42.144;25.200;2023-09-07T12:15:24;9.05;;;4.20;;
71148;SDS011;59072;42.144;25.200;2023-09-07T12:17:49;6.47;;;4.30;;
71148;SDS011;59072;42.144;25.200;2023-09-07T12:20:27;10.38;;;4.65;;
71148;SDS011;59072;42.144;25.200;2023-09-07T12:22:53;7.60;;;4.28;;
71148;SDS011;59072;42.144;25.200;2023-09-07T12:25:28;7.78;;;4.00;;
71148;SDS011;59072;42.144;25.200;2023-09-07T12:27:53;9.60;;;4.50;;
71148;SDS011;59072;42.144;25.200;2023-09-07T12:30:29;8.02;;;4.32;;
71148;SDS011;59072;42.144;25.200;2023-09-07T12:32:54;10.57;;;4.32;;
71148;SDS011;59072;42.144;25.200;2023-09-07T12:35:32;10.88;;;4.95;;
71148;SDS011;59072;42.144;25.200;2023-09-07T12:37:57;8.45;;;4.57;;
71148;SDS011;59072;42.144;25.200;2023-09-07T12:40:32;7.50;;;4.53;;
71148;SDS011;59072;42.144;25.200;2023-09-07T12:42:58;8.80;;;4.60;;
71148;SDS011;59072;42.144;25.200;2023-09-07T12:45:34;10.18;;;4.63;;
71148;SDS011;59072;42.144;25.200;2023-09-07T12:48:00;9.10;;;4.18;;
71148;SDS011;59072;42.144;25.200;2023-09-07T12:50:37;7.93;;;4.78;;
71148;SDS011;59072;42.144;25.200;2023-09-07T12:53:05;7.22;;;4.35;;
71148;SDS011;59072;42.144;25.200;2023-09-07T12:55:40;9.90;;;4.07;;
71148;SDS011;59072;42.144;25.200;2023-09-07T12:58:05;10.95;;;4.10;;
71148;SDS011;59072;42.144;25.200;2023-09-07T13:00:49;6.97;;;4.28;;
71148;SDS011;59072;42.144;25.200;2023-09-07T13:04:01;7.72;;;4.82;;
71148;SDS011;59072;42.144;25.200;2023-09-07T13:06:07;7.20;;;4.00;;
71148;SDS011;59072;42.144;25.200;2023-09-07T13:08:42;7.80;;;4.22;;
71148;SDS011;59072;42.144;25.200;2023-09-07T13:11:08;12.93;;;5.00;;
71148;SDS011;59072;42.144;25.200;2023-09-07T13:13:52;9.98;;;4.40;;
71148;SDS011;59072;42.144;25.200;2023-09-07T13:19:11;7.00;;;4.05;;
71148;SDS011;59072;42.144;25.200;2023-09-07T13:21:57;6.50;;;4.10;;
71148;SDS011;59072;42.144;25.200;2023-09-07T13:28:06;6.18;;;4.13;;
71148;SDS011;59072;42.144;25.200;2023-09-07T13:33:16;8.20;;;4.93;;
71148;SDS011;59072;42.144;25.200;2023-09-07T13:35:51;9.05;;;4.85;;
71148;SDS011;59072;42.144;25.200;2023-09-07T13:38:16;8.55;;;4.07;;
71148;SDS011;59072;42.144;25.200;2023-09-07T13:46:21;8.20;;;4.40;;
71148;SDS011;59072;42.144;25.200;2023-09-07T13:48:48;7.67;;;4.43;;
71148;SDS011;59072;42.144;25.200;2023-09-07T13:51:13;7.97;;;4.32;;
71148;SDS011;59072;42.144;25.200;2023-09-07T13:53:39;6.65;;;4.75;;
71148;SDS011;59072;42.144;25.200;2023-09-07T13:56:22;8.40;;;5.82;;
71148;SDS011;59072;42.144;25.200;2023-09-07T13:58:48;8.93;;;5.97;;
71148;SDS011;59072;42.144;25.200;2023-09-07T14:01:25;9.55;;;5.93;;
71148;SDS011;59072;42.144;25.200;2023-09-07T14:03:50;7.70;;;4.40;;
71148;SDS011;59072;42.144;25.200;2023-09-07T14:06:16;8.48;;;5.53;;
71148;SDS011;59072;42.144;25.200;2023-09-07T14:08:43;24.67;;;16.33;;
71148;SDS011;59072;42.144;25.200;2023-09-07T14:14:03;9.35;;;6.75;;
71148;SDS011;59072;42.144;25.200;2023-09-07T14:19:54;7.93;;;6.05;;
71148;SDS011;59072;42.144;25.200;2023-09-07T14:31:24;13.50;;;10.10;;
71148;SDS011;59072;42.144;25.200;2023-09-07T14:33:55;15.75;;;7.75;;
71148;SDS011;59072;42.144;25.200;2023-09-07T14:36:21;9.43;;;5.00;;
71148;SDS011;59072;42.144;25.200;2023-09-07T14:38:57;12.57;;;4.55;;
71148;SDS011;59072;42.144;25.200;2023-09-07T14:41:22;6.70;;;4.43;;
71148;SDS011;59072;42.144;25.200;2023-09-07T14:44:00;8.27;;;4.32;;
71148;SDS011;59072;42.144;25.200;2023-09-07T14:46:26;8.57;;;4.25;;
71148;SDS011;59072;42.144;25.200;2023-09-07T14:49:01;8.50;;;3.92;;
71148;SDS011;59072;42.144;25.200;2023-09-07T14:51:27;7.93;;;4.47;;
71148;SDS011;59072;42.144;25.200;2023-09-07T14:54:02;9.90;;;4.40;;
71148;SDS011;59072;42.144;25.200;2023-09-07T14:56:27;9.43;;;5.63;;
71148;SDS011;59072;42.144;25.200;2023-09-07T14:59:09;10.75;;;4.47;;
71148;SDS011;59072;42.144;25.200;2023-09-07T15:01:34;9.52;;;5.38;;
71148;SDS011;59072;42.144;25.200;2023-09-07T15:04:12;9.63;;;4.72;;
71148;SDS011;59072;42.144;25.200;2023-09-07T15:06:38;11.75;;;4.70;;
71148;SDS011;59072;42.144;25.200;2023-09-07T15:09:16;9.10;;;4.72;;
71148;SDS011;59072;42.144;25.200;2023-09-07T15:11:42;9.98;;;5.03;;
71148;SDS011;59072;42.144;25.200;2023-09-07T15:14:25;6.95;;;5.05;;
71148;SDS011;59072;42.144;25.200;2023-09-07T15:20:37;9.55;;;4.55;;
71148;SDS011;59072;42.144;25.200;2023-09-07T15:22:46;11.02;;;5.50;;
71148;SDS011;59072;42.144;25.200;2023-09-07T15:25:22;12.48;;;8.15;;
71148;SDS011;59072;42.144;25.200;2023-09-07T15:27:48;10.60;;;5.60;;
71148;SDS011;59072;42.144;25.200;2023-09-07T15:30:25;8.48;;;4.75;;
71148;SDS011;59072;42.144;25.200;2023-09-07T15:32:53;8.82;;;4.38;;
71148;SDS011;59072;42.144;25.200;2023-09-07T15:35:50;9.50;;;4.80;;
71148;SDS011;59072;42.144;25.200;2023-09-07T15:38:26;15.45;;;6.75;;
71148;SDS011;59072;42.144;25.200;2023-09-07T15:40:53;12.23;;;6.82;;
71148;SDS011;59072;42.144;25.200;2023-09-07T15:43:28;10.93;;;5.82;;
71148;SDS011;59072;42.144;25.200;2023-09-07T15:45:55;12.77;;;6.78;;
71148;SDS011;59072;42.144;25.200;2023-09-07T15:48:29;12.95;;;7.18;;
71148;SDS011;59072;42.144;25.200;2023-09-07T15:50:56;11.70;;;6.05;;
71148;SDS011;59072;42.144;25.200;2023-09-07T15:53:33;8.70;;;4.78;;
71148;SDS011;59072;42.144;25.200;2023-09-07T15:55:59;8.82;;;5.35;;
71148;SDS011;59072;42.144;25.200;2023-09-07T15:58:33;10.00;;;4.95;;
71148;SDS011;59072;42.144;25.200;2023-09-07T16:00:59;8.80;;;4.85;;
71148;SDS011;59072;42.144;25.200;2023-09-07T16:03:27;10.20;;;5.30;;
71148;SDS011;59072;42.144;25.200;2023-09-07T16:05:52;12.00;;;6.13;;
71148;SDS011;59072;42.144;25.200;2023-09-07T16:08:18;8.60;;;4.82;;
71148;SDS011;59072;42.144;25.200;2023-09-07T16:10:54;9.85;;;4.72;;
71148;SDS011;59072;42.144;25.200;2023-09-07T16:13:31;8.13;;;5.10;;
71148;SDS011;59072;42.144;25.200;2023-09-07T16:16:06;8.75;;;5.50;;
71148;SDS011;59072;42.144;25.200;2023-09-07T16:18:33;6.78;;;4.60;;
71148;SDS011;59072;42.144;25.200;2023-09-07T16:21:11;6.85;;;4.90;;
71148;SDS011;59072;42.144;25.200;2023-09-07T16:24:08;10.43;;;5.32;;
71148;SDS011;59072;42.144;25.200;2023-09-07T16:26:36;8.60;;;5.40;;
71148;SDS011;59072;42.144;25.200;2023-09-07T16:29:11;10.15;;;5.57;;
71148;SDS011;59072;42.144;25.200;2023-09-07T16:31:38;8.73;;;5.78;;
71148;SDS011;59072;42.144;25.200;2023-09-07T16:34:13;12.93;;;5.93;;
71148;SDS011;59072;42.144;25.200;2023-09-07T16:36:38;9.93;;;6.05;;
71148;SDS011;59072;42.144;25.200;2023-09-07T16:42:40;13.80;;;7.00;;
71148;SDS011;59072;42.144;25.200;2023-09-07T16:45:06;12.93;;;6.93;;
71148;SDS011;59072;42.144;25.200;2023-09-07T16:47:32;15.05;;;11.25;;
71148;SDS011;59072;42.144;25.200;2023-09-07T16:49:57;18.10;;;7.85;;
71148;SDS011;59072;42.144;25.200;2023-09-07T16:52:32;15.75;;;7.45;;
71148;SDS011;59072;42.144;25.200;2023-09-07T16:54:57;11.48;;;6.70;;
71148;SDS011;59072;42.144;25.200;2023-09-07T16:57:34;13.88;;;7.20;;
71148;SDS011;59072;42.144;25.200;2023-09-07T17:00:02;10.43;;;6.70;;
71148;SDS011;59072;42.144;25.200;2023-09-07T17:02:47;10.93;;;6.53;;
71148;SDS011;59072;42.144;25.200;2023-09-07T17:08:04;10.70;;;6.20;;
71148;SDS011;59072;42.144;25.200;2023-09-07T17:10:41;9.40;;;6.80;;
71148;SDS011;59072;42.144;25.200;2023-09-07T17:13:06;11.55;;;6.72;;